sensor_id;sensor_type;location;lat;lon;timestamp;temperature;humidity
12291;DHT22;6208;48.956;9.076;2022-12-07T00:01:29;5.60;99.90
12291;DHT22;6208;48.956;9.076;2022-12-07T00:04:16;5.40;99.90
12291;DHT22;6208;48.956;9.076;2022-12-07T00:07:00;5.30;99.90
12291;DHT22;6208;48.956;9.076;2022-12-07T00:09:45;5.00;99.90
12291;DHT22;6208;48.956;9.076;2022-12-07T00:12:29;4.80;99.90
12291;DHT22;6208;48.956;9.076;2022-12-07T00:15:13;4.70;99.90
12291;DHT22;6208;48.956;9.076;2022-12-07T00:17:57;4.60;99.90
12291;DHT22;6208;48.956;9.076;2022-12-07T00:20:41;5.00;99.90
12291;DHT22;6208;48.956;9.076;2022-12-07T00:23:25;4.50;99.90
12291;DHT22;6208;48.956;9.076;2022-12-07T00:26:15;4.70;99.90
12291;DHT22;6208;48.956;9.076;2022-12-07T00:29:05;4.80;99.90
12291;DHT22;6208;48.956;9.076;2022-12-07T00:31:50;6.50;99.90
12291;DHT22;6208;48.956;9.076;2022-12-07T00:34:34;5.10;99.90
12291;DHT22;6208;48.956;9.076;2022-12-07T00:37:18;5.30;99.90
12291;DHT22;6208;48.956;9.076;2022-12-07T00:40:02;5.40;99.90
12291;DHT22;6208;48.956;9.076;2022-12-07T00:42:47;5.50;99.90
12291;DHT22;6208;48.956;9.076;2022-12-07T00:45:31;6.40;99.90
12291;DHT22;6208;48.956;9.076;2022-12-07T00:48:15;5.40;99.90
12291;DHT22;6208;48.956;9.076;2022-12-07T00:51:00;7.40;99.90
12291;DHT22;6208;48.956;9.076;2022-12-07T00:53:44;6.00;99.90
12291;DHT22;6208;48.956;9.076;2022-12-07T00:56:29;7.60;99.90
12291;DHT22;6208;48.956;9.076;2022-12-07T00:59:13;5.70;99.80
12291;DHT22;6208;48.956;9.076;2022-12-07T01:01:58;5.80;99.70
12291;DHT22;6208;48.956;9.076;2022-12-07T01:04:43;5.70;99.50
12291;DHT22;6208;48.956;9.076;2022-12-07T01:07:27;5.60;99.90
12291;DHT22;6208;48.956;9.076;2022-12-07T01:10:11;5.30;99.90
12291;DHT22;6208;48.956;9.076;2022-12-07T01:12:55;5.60;99.90
12291;DHT22;6208;48.956;9.076;2022-12-07T01:15:40;5.30;99.90
12291;DHT22;6208;48.956;9.076;2022-12-07T01:18:26;5.10;99.90
12291;DHT22;6208;48.956;9.076;2022-12-07T01:21:13;5.50;99.90
12291;DHT22;6208;48.956;9.076;2022-12-07T01:23:57;5.30;99.90
12291;DHT22;6208;48.956;9.076;2022-12-07T01:26:42;5.30;99.90
12291;DHT22;6208;48.956;9.076;2022-12-07T01:29:26;6.60;99.90
12291;DHT22;6208;48.956;9.076;2022-12-07T01:32:10;5.00;99.90
12291;DHT22;6208;48.956;9.076;2022-12-07T01:34:55;5.00;99.90
12291;DHT22;6208;48.956;9.076;2022-12-07T01:37:39;5.20;99.90
12291;DHT22;6208;48.956;9.076;2022-12-07T01:40:23;5.20;99.90
12291;DHT22;6208;48.956;9.076;2022-12-07T01:43:17;5.20;99.90
12291;DHT22;6208;48.956;9.076;2022-12-07T01:46:03;4.60;99.90
12291;DHT22;6208;48.956;9.076;2022-12-07T01:48:47;4.30;99.90
12291;DHT22;6208;48.956;9.076;2022-12-07T01:51:32;4.10;99.90
12291;DHT22;6208;48.956;9.076;2022-12-07T01:54:17;4.00;99.90
12291;DHT22;6208;48.956;9.076;2022-12-07T01:57:03;4.00;99.90
12291;DHT22;6208;48.956;9.076;2022-12-07T01:59:49;4.10;99.90
12291;DHT22;6208;48.956;9.076;2022-12-07T02:02:45;4.00;99.90
12291;DHT22;6208;48.956;9.076;2022-12-07T02:05:32;4.10;99.90
12291;DHT22;6208;48.956;9.076;2022-12-07T02:08:18;4.00;99.90
12291;DHT22;6208;48.956;9.076;2022-12-07T02:11:03;4.30;99.90
12291;DHT22;6208;48.956;9.076;2022-12-07T02:13:48;4.00;99.90
12291;DHT22;6208;48.956;9.076;2022-12-07T02:17:03;4.10;99.90
12291;DHT22;6208;48.956;9.076;2022-12-07T02:20:33;4.10;99.90
12291;DHT22;6208;48.956;9.076;2022-12-07T02:23:40;4.20;99.90
12291;DHT22;6208;48.956;9.076;2022-12-07T02:29:34;4.20;99.90
12291;DHT22;6208;48.956;9.076;2022-12-07T02:35:20;6.20;99.90
12291;DHT22;6208;48.956;9.076;2022-12-07T02:41:18;4.30;99.90
12291;DHT22;6208;48.956;9.076;2022-12-07T02:44:07;6.20;99.90
12291;DHT22;6208;48.956;9.076;2022-12-07T02:46:56;4.30;99.90
12291;DHT22;6208;48.956;9.076;2022-12-07T02:49:42;4.50;99.90
12291;DHT22;6208;48.956;9.076;2022-12-07T02:52:26;4.40;99.90
12291;DHT22;6208;48.956;9.076;2022-12-07T02:55:11;5.80;99.90
12291;DHT22;6208;48.956;9.076;2022-12-07T03:04:33;3.80;99.90
12291;DHT22;6208;48.956;9.076;2022-12-07T03:07:34;4.10;99.90
12291;DHT22;6208;48.956;9.076;2022-12-07T03:16:31;4.10;99.90
12291;DHT22;6208;48.956;9.076;2022-12-07T03:19:19;4.40;99.90
12291;DHT22;6208;48.956;9.076;2022-12-07T03:22:07;6.90;99.90
12291;DHT22;6208;48.956;9.076;2022-12-07T03:24:56;4.70;99.90
12291;DHT22;6208;48.956;9.076;2022-12-07T03:27:52;4.00;99.90
12291;DHT22;6208;48.956;9.076;2022-12-07T03:30:47;3.90;99.90
12291;DHT22;6208;48.956;9.076;2022-12-07T03:33:55;4.10;99.90
12291;DHT22;6208;48.956;9.076;2022-12-07T03:37:07;4.40;99.90
12291;DHT22;6208;48.956;9.076;2022-12-07T03:43:01;3.90;99.90
12291;DHT22;6208;48.956;9.076;2022-12-07T03:52:12;4.80;99.90
12291;DHT22;6208;48.956;9.076;2022-12-07T03:55:11;4.10;99.90
12291;DHT22;6208;48.956;9.076;2022-12-07T03:58:03;3.60;99.90
12291;DHT22;6208;48.956;9.076;2022-12-07T04:00:49;4.40;99.90
12291;DHT22;6208;48.956;9.076;2022-12-07T04:03:33;3.60;99.90
12291;DHT22;6208;48.956;9.076;2022-12-07T04:06:17;4.10;99.90
12291;DHT22;6208;48.956;9.076;2022-12-07T04:09:02;5.00;99.90
12291;DHT22;6208;48.956;9.076;2022-12-07T04:11:47;4.70;99.90
12291;DHT22;6208;48.956;9.076;2022-12-07T04:14:31;5.70;99.90
12291;DHT22;6208;48.956;9.076;2022-12-07T04:17:15;5.00;99.90
12291;DHT22;6208;48.956;9.076;2022-12-07T04:19:59;5.20;99.90
12291;DHT22;6208;48.956;9.076;2022-12-07T04:22:43;5.40;99.90
12291;DHT22;6208;48.956;9.076;2022-12-07T04:25:27;5.50;99.90
12291;DHT22;6208;48.956;9.076;2022-12-07T04:28:11;5.20;99.90
12291;DHT22;6208;48.956;9.076;2022-12-07T04:30:55;4.90;99.90
12291;DHT22;6208;48.956;9.076;2022-12-07T04:33:39;7.00;99.90
12291;DHT22;6208;48.956;9.076;2022-12-07T04:36:23;4.50;99.90
12291;DHT22;6208;48.956;9.076;2022-12-07T04:39:21;4.50;99.90
12291;DHT22;6208;48.956;9.076;2022-12-07T04:42:06;4.50;99.90
12291;DHT22;6208;48.956;9.076;2022-12-07T04:44:49;4.90;99.90
12291;DHT22;6208;48.956;9.076;2022-12-07T04:47:35;6.30;99.90
12291;DHT22;6208;48.956;9.076;2022-12-07T04:50:19;4.60;99.90
12291;DHT22;6208;48.956;9.076;2022-12-07T04:53:03;4.60;99.90
12291;DHT22;6208;48.956;9.076;2022-12-07T04:55:47;4.70;99.90
12291;DHT22;6208;48.956;9.076;2022-12-07T04:58:31;4.40;99.90
12291;DHT22;6208;48.956;9.076;2022-12-07T05:01:17;4.40;99.90
12291;DHT22;6208;48.956;9.076;2022-12-07T05:04:01;4.30;99.90
12291;DHT22;6208;48.956;9.076;2022-12-07T05:06:45;4.30;99.90
12291;DHT22;6208;48.956;9.076;2022-12-07T05:09:29;5.70;99.90
12291;DHT22;6208;48.956;9.076;2022-12-07T05:12:13;4.00;99.90
12291;DHT22;6208;48.956;9.076;2022-12-07T05:14:57;4.40;99.90
12291;DHT22;6208;48.956;9.076;2022-12-07T05:17:41;4.40;99.90
12291;DHT22;6208;48.956;9.076;2022-12-07T05:20:26;6.40;99.90
12291;DHT22;6208;48.956;9.076;2022-12-07T05:23:10;6.20;99.90
12291;DHT22;6208;48.956;9.076;2022-12-07T05:25:54;4.20;99.90
12291;DHT22;6208;48.956;9.076;2022-12-07T05:28:38;4.80;99.90
12291;DHT22;6208;48.956;9.076;2022-12-07T05:31:24;4.30;99.90
12291;DHT22;6208;48.956;9.076;2022-12-07T05:34:10;4.60;99.90
12291;DHT22;6208;48.956;9.076;2022-12-07T05:36:54;6.10;99.90
12291;DHT22;6208;48.956;9.076;2022-12-07T05:39:38;4.50;99.90
12291;DHT22;6208;48.956;9.076;2022-12-07T05:42:24;6.40;99.90
12291;DHT22;6208;48.956;9.076;2022-12-07T05:45:09;4.10;99.90
12291;DHT22;6208;48.956;9.076;2022-12-07T05:47:53;5.90;99.90
12291;DHT22;6208;48.956;9.076;2022-12-07T05:50:37;4.30;99.90
12291;DHT22;6208;48.956;9.076;2022-12-07T05:53:21;5.50;99.90
12291;DHT22;6208;48.956;9.076;2022-12-07T05:56:06;4.30;99.90
12291;DHT22;6208;48.956;9.076;2022-12-07T05:58:50;3.70;99.90
12291;DHT22;6208;48.956;9.076;2022-12-07T06:01:59;4.60;99.90
12291;DHT22;6208;48.956;9.076;2022-12-07T06:04:45;3.50;99.90
12291;DHT22;6208;48.956;9.076;2022-12-07T06:07:30;3.40;99.90
12291;DHT22;6208;48.956;9.076;2022-12-07T06:10:14;3.50;99.90
12291;DHT22;6208;48.956;9.076;2022-12-07T06:12:58;3.60;99.90
12291;DHT22;6208;48.956;9.076;2022-12-07T06:15:42;6.10;99.90
12291;DHT22;6208;48.956;9.076;2022-12-07T06:18:26;3.60;99.90
12291;DHT22;6208;48.956;9.076;2022-12-07T06:21:10;3.50;99.90
12291;DHT22;6208;48.956;9.076;2022-12-07T06:23:54;3.30;99.90
12291;DHT22;6208;48.956;9.076;2022-12-07T06:26:39;3.30;99.90
12291;DHT22;6208;48.956;9.076;2022-12-07T06:29:24;3.50;99.90
12291;DHT22;6208;48.956;9.076;2022-12-07T06:32:08;3.70;99.90
12291;DHT22;6208;48.956;9.076;2022-12-07T06:34:52;4.80;99.90
12291;DHT22;6208;48.956;9.076;2022-12-07T06:37:36;3.80;99.90
12291;DHT22;6208;48.956;9.076;2022-12-07T06:40:20;4.20;99.90
12291;DHT22;6208;48.956;9.076;2022-12-07T06:43:04;4.50;99.90
12291;DHT22;6208;48.956;9.076;2022-12-07T06:45:48;4.60;99.90
12291;DHT22;6208;48.956;9.076;2022-12-07T06:48:32;5.70;99.90
12291;DHT22;6208;48.956;9.076;2022-12-07T06:51:16;6.40;99.90
12291;DHT22;6208;48.956;9.076;2022-12-07T06:54:00;4.90;99.80
12291;DHT22;6208;48.956;9.076;2022-12-07T06:56:45;6.20;99.80
12291;DHT22;6208;48.956;9.076;2022-12-07T06:59:29;5.90;99.90
12291;DHT22;6208;48.956;9.076;2022-12-07T07:02:13;5.10;99.90
12291;DHT22;6208;48.956;9.076;2022-12-07T07:04:57;4.50;99.90
12291;DHT22;6208;48.956;9.076;2022-12-07T07:07:41;4.50;99.30
12291;DHT22;6208;48.956;9.076;2022-12-07T07:10:25;3.80;99.90
12291;DHT22;6208;48.956;9.076;2022-12-07T07:13:09;3.90;99.90
12291;DHT22;6208;48.956;9.076;2022-12-07T07:15:54;3.60;99.90
12291;DHT22;6208;48.956;9.076;2022-12-07T07:18:38;3.70;99.90
12291;DHT22;6208;48.956;9.076;2022-12-07T07:21:22;3.70;99.90
12291;DHT22;6208;48.956;9.076;2022-12-07T07:24:07;3.80;99.90
12291;DHT22;6208;48.956;9.076;2022-12-07T07:26:51;3.80;99.90
12291;DHT22;6208;48.956;9.076;2022-12-07T07:29:35;4.00;99.90
12291;DHT22;6208;48.956;9.076;2022-12-07T07:32:19;4.40;99.90
12291;DHT22;6208;48.956;9.076;2022-12-07T07:35:05;4.80;99.90
12291;DHT22;6208;48.956;9.076;2022-12-07T07:37:50;5.00;99.10
12291;DHT22;6208;48.956;9.076;2022-12-07T07:40:34;4.80;98.80
12291;DHT22;6208;48.956;9.076;2022-12-07T07:43:19;4.40;99.60
12291;DHT22;6208;48.956;9.076;2022-12-07T07:46:03;4.30;99.80
12291;DHT22;6208;48.956;9.076;2022-12-07T07:48:47;4.10;99.90
12291;DHT22;6208;48.956;9.076;2022-12-07T07:51:31;4.10;99.90
12291;DHT22;6208;48.956;9.076;2022-12-07T07:54:15;6.20;99.90
12291;DHT22;6208;48.956;9.076;2022-12-07T07:56:59;4.50;99.70
12291;DHT22;6208;48.956;9.076;2022-12-07T07:59:43;4.50;99.60
12291;DHT22;6208;48.956;9.076;2022-12-07T08:02:28;4.60;99.20
12291;DHT22;6208;48.956;9.076;2022-12-07T08:05:14;5.00;98.70
12291;DHT22;6208;48.956;9.076;2022-12-07T08:07:58;5.30;97.90
12291;DHT22;6208;48.956;9.076;2022-12-07T08:10:42;5.20;97.70
12291;DHT22;6208;48.956;9.076;2022-12-07T08:13:27;5.30;97.40
12291;DHT22;6208;48.956;9.076;2022-12-07T08:16:11;5.20;97.60
12291;DHT22;6208;48.956;9.076;2022-12-07T08:18:56;5.20;97.20
12291;DHT22;6208;48.956;9.076;2022-12-07T08:21:40;5.50;96.90
12291;DHT22;6208;48.956;9.076;2022-12-07T08:24:24;5.60;96.10
12291;DHT22;6208;48.956;9.076;2022-12-07T08:27:09;5.70;96.30
12291;DHT22;6208;48.956;9.076;2022-12-07T08:29:53;6.80;96.40
12291;DHT22;6208;48.956;9.076;2022-12-07T08:32:37;5.80;95.20
12291;DHT22;6208;48.956;9.076;2022-12-07T08:35:22;7.20;95.70
12291;DHT22;6208;48.956;9.076;2022-12-07T08:38:06;5.90;94.30
12291;DHT22;6208;48.956;9.076;2022-12-07T08:40:57;5.10;94.40
12291;DHT22;6208;48.956;9.076;2022-12-07T08:43:42;5.30;95.00
12291;DHT22;6208;48.956;9.076;2022-12-07T08:46:37;5.60;94.80
12291;DHT22;6208;48.956;9.076;2022-12-07T08:49:35;5.30;94.30
12291;DHT22;6208;48.956;9.076;2022-12-07T08:52:20;7.70;96.80
12291;DHT22;6208;48.956;9.076;2022-12-07T08:55:05;5.40;95.40
12291;DHT22;6208;48.956;9.076;2022-12-07T08:57:50;5.50;95.60
12291;DHT22;6208;48.956;9.076;2022-12-07T09:00:34;6.50;96.00
12291;DHT22;6208;48.956;9.076;2022-12-07T09:03:18;5.90;94.60
12291;DHT22;6208;48.956;9.076;2022-12-07T09:06:02;7.10;94.50
12291;DHT22;6208;48.956;9.076;2022-12-07T09:08:50;5.40;94.50
12291;DHT22;6208;48.956;9.076;2022-12-07T09:11:35;5.10;94.80
12291;DHT22;6208;48.956;9.076;2022-12-07T09:14:19;5.00;95.40
12291;DHT22;6208;48.956;9.076;2022-12-07T09:17:09;7.10;96.10
12291;DHT22;6208;48.956;9.076;2022-12-07T09:19:54;4.80;95.30
12291;DHT22;6208;48.956;9.076;2022-12-07T09:22:38;4.70;96.10
12291;DHT22;6208;48.956;9.076;2022-12-07T09:25:22;5.50;96.70
12291;DHT22;6208;48.956;9.076;2022-12-07T09:28:06;6.80;97.70
12291;DHT22;6208;48.956;9.076;2022-12-07T09:30:51;4.50;97.30
12291;DHT22;6208;48.956;9.076;2022-12-07T09:33:35;4.40;98.10
12291;DHT22;6208;48.956;9.076;2022-12-07T09:36:19;4.40;98.50
12291;DHT22;6208;48.956;9.076;2022-12-07T09:39:03;6.50;99.40
12291;DHT22;6208;48.956;9.076;2022-12-07T09:41:49;4.60;98.30
12291;DHT22;6208;48.956;9.076;2022-12-07T09:44:34;7.20;99.30
12291;DHT22;6208;48.956;9.076;2022-12-07T09:47:19;4.50;98.60
12291;DHT22;6208;48.956;9.076;2022-12-07T09:50:17;5.30;99.40
12291;DHT22;6208;48.956;9.076;2022-12-07T09:53:10;4.50;99.30
12291;DHT22;6208;48.956;9.076;2022-12-07T09:55:56;5.10;99.60
12291;DHT22;6208;48.956;9.076;2022-12-07T09:58:42;4.80;99.10
12291;DHT22;6208;48.956;9.076;2022-12-07T10:01:32;4.90;98.80
12291;DHT22;6208;48.956;9.076;2022-12-07T10:04:24;5.10;98.60
12291;DHT22;6208;48.956;9.076;2022-12-07T10:07:09;5.00;98.70
12291;DHT22;6208;48.956;9.076;2022-12-07T10:09:53;4.70;99.10
12291;DHT22;6208;48.956;9.076;2022-12-07T10:13:03;5.30;99.90
12291;DHT22;6208;48.956;9.076;2022-12-07T10:15:54;5.50;99.90
12291;DHT22;6208;48.956;9.076;2022-12-07T10:18:40;5.00;99.50
12291;DHT22;6208;48.956;9.076;2022-12-07T10:21:28;5.30;99.20
12291;DHT22;6208;48.956;9.076;2022-12-07T10:26:58;5.50;98.50
12291;DHT22;6208;48.956;9.076;2022-12-07T10:29:48;7.20;99.30
12291;DHT22;6208;48.956;9.076;2022-12-07T10:32:35;5.40;98.30
12291;DHT22;6208;48.956;9.076;2022-12-07T10:38:16;5.40;98.30
12291;DHT22;6208;48.956;9.076;2022-12-07T10:41:07;5.40;98.80
12291;DHT22;6208;48.956;9.076;2022-12-07T10:43:54;6.10;98.40
12291;DHT22;6208;48.956;9.076;2022-12-07T10:46:58;7.30;98.70
12291;DHT22;6208;48.956;9.076;2022-12-07T10:53:12;5.20;98.20
12291;DHT22;6208;48.956;9.076;2022-12-07T10:59:13;4.90;99.20
12291;DHT22;6208;48.956;9.076;2022-12-07T11:08:17;4.50;99.50
12291;DHT22;6208;48.956;9.076;2022-12-07T11:11:06;4.30;99.80
12291;DHT22;6208;48.956;9.076;2022-12-07T11:17:03;4.50;99.70
12291;DHT22;6208;48.956;9.076;2022-12-07T11:26:18;4.60;99.90
12291;DHT22;6208;48.956;9.076;2022-12-07T11:38:06;5.20;98.60
12291;DHT22;6208;48.956;9.076;2022-12-07T11:40:56;6.60;99.10
12291;DHT22;6208;48.956;9.076;2022-12-07T11:49:50;4.90;98.80
12291;DHT22;6208;48.956;9.076;2022-12-07T11:53:18;7.50;99.90
12291;DHT22;6208;48.956;9.076;2022-12-07T12:04:41;5.30;99.00
12291;DHT22;6208;48.956;9.076;2022-12-07T12:07:28;5.50;98.60
12291;DHT22;6208;48.956;9.076;2022-12-07T12:16:42;5.60;98.20
12291;DHT22;6208;48.956;9.076;2022-12-07T12:23:13;5.90;97.80
12291;DHT22;6208;48.956;9.076;2022-12-07T12:26:05;5.90;97.40
12291;DHT22;6208;48.956;9.076;2022-12-07T12:28:58;5.40;97.50
12291;DHT22;6208;48.956;9.076;2022-12-07T12:31:43;5.30;98.10
12291;DHT22;6208;48.956;9.076;2022-12-07T12:43:46;5.60;98.10
12291;DHT22;6208;48.956;9.076;2022-12-07T12:55:13;5.20;98.50
12291;DHT22;6208;48.956;9.076;2022-12-07T13:04:18;5.20;99.50
12291;DHT22;6208;48.956;9.076;2022-12-07T13:07:10;5.30;99.30
12291;DHT22;6208;48.956;9.076;2022-12-07T13:09:56;5.50;99.20
12291;DHT22;6208;48.956;9.076;2022-12-07T13:12:40;5.50;98.60
12291;DHT22;6208;48.956;9.076;2022-12-07T13:18:35;5.40;98.10
12291;DHT22;6208;48.956;9.076;2022-12-07T13:21:40;5.50;97.90
12291;DHT22;6208;48.956;9.076;2022-12-07T13:24:24;5.60;97.80
12291;DHT22;6208;48.956;9.076;2022-12-07T13:27:11;5.80;97.80
12291;DHT22;6208;48.956;9.076;2022-12-07T13:29:56;5.90;97.70
12291;DHT22;6208;48.956;9.076;2022-12-07T13:32:42;6.00;97.40
12291;DHT22;6208;48.956;9.076;2022-12-07T13:35:36;5.80;97.40
12291;DHT22;6208;48.956;9.076;2022-12-07T13:38:30;5.80;97.50
12291;DHT22;6208;48.956;9.076;2022-12-07T13:41:17;5.60;98.00
12291;DHT22;6208;48.956;9.076;2022-12-07T13:44:08;5.50;98.40
12291;DHT22;6208;48.956;9.076;2022-12-07T13:49:48;5.60;98.40
12291;DHT22;6208;48.956;9.076;2022-12-07T13:52:33;5.30;98.60
12291;DHT22;6208;48.956;9.076;2022-12-07T13:55:28;5.10;98.80
12291;DHT22;6208;48.956;9.076;2022-12-07T13:58:12;5.20;98.90
12291;DHT22;6208;48.956;9.076;2022-12-07T14:00:58;5.10;98.70
12291;DHT22;6208;48.956;9.076;2022-12-07T14:03:42;7.50;99.90
12291;DHT22;6208;48.956;9.076;2022-12-07T14:06:27;5.20;98.80
12291;DHT22;6208;48.956;9.076;2022-12-07T14:09:24;5.10;99.10
12291;DHT22;6208;48.956;9.076;2022-12-07T14:12:08;5.30;98.80
12291;DHT22;6208;48.956;9.076;2022-12-07T14:14:52;5.20;99.30
12291;DHT22;6208;48.956;9.076;2022-12-07T14:17:50;5.10;99.70
12291;DHT22;6208;48.956;9.076;2022-12-07T14:20:37;4.80;99.90
12291;DHT22;6208;48.956;9.076;2022-12-07T14:23:25;4.80;99.90
12291;DHT22;6208;48.956;9.076;2022-12-07T14:26:20;6.30;99.90
12291;DHT22;6208;48.956;9.076;2022-12-07T14:32:35;4.40;99.90
12291;DHT22;6208;48.956;9.076;2022-12-07T14:35:21;4.60;99.90
12291;DHT22;6208;48.956;9.076;2022-12-07T14:38:05;4.90;99.90
12291;DHT22;6208;48.956;9.076;2022-12-07T14:40:50;5.00;99.90
12291;DHT22;6208;48.956;9.076;2022-12-07T14:43:35;4.90;99.90
12291;DHT22;6208;48.956;9.076;2022-12-07T14:46:19;4.60;99.90
12291;DHT22;6208;48.956;9.076;2022-12-07T14:49:03;4.60;99.90
12291;DHT22;6208;48.956;9.076;2022-12-07T14:51:48;4.70;99.90
12291;DHT22;6208;48.956;9.076;2022-12-07T14:54:33;4.90;99.90
12291;DHT22;6208;48.956;9.076;2022-12-07T14:57:17;4.90;99.90
12291;DHT22;6208;48.956;9.076;2022-12-07T15:00:01;4.90;99.90
12291;DHT22;6208;48.956;9.076;2022-12-07T15:02:46;5.20;99.90
12291;DHT22;6208;48.956;9.076;2022-12-07T15:05:32;7.40;99.90
12291;DHT22;6208;48.956;9.076;2022-12-07T15:08:17;7.10;99.90
12291;DHT22;6208;48.956;9.076;2022-12-07T15:11:02;5.60;99.90
12291;DHT22;6208;48.956;9.076;2022-12-07T15:13:46;5.10;99.90
12291;DHT22;6208;48.956;9.076;2022-12-07T15:16:49;5.30;99.90
12291;DHT22;6208;48.956;9.076;2022-12-07T15:19:34;5.60;99.90
12291;DHT22;6208;48.956;9.076;2022-12-07T15:22:18;5.60;99.80
12291;DHT22;6208;48.956;9.076;2022-12-07T15:25:02;5.60;99.50
12291;DHT22;6208;48.956;9.076;2022-12-07T15:27:48;5.40;99.40
12291;DHT22;6208;48.956;9.076;2022-12-07T15:30:32;5.40;99.60
12291;DHT22;6208;48.956;9.076;2022-12-07T15:33:16;5.40;99.20
12291;DHT22;6208;48.956;9.076;2022-12-07T15:36:00;5.50;99.20
12291;DHT22;6208;48.956;9.076;2022-12-07T15:38:44;5.50;99.10
12291;DHT22;6208;48.956;9.076;2022-12-07T15:41:28;5.30;99.30
12291;DHT22;6208;48.956;9.076;2022-12-07T15:44:13;5.90;99.90
12291;DHT22;6208;48.956;9.076;2022-12-07T15:47:16;6.50;99.90
12291;DHT22;6208;48.956;9.076;2022-12-07T15:50:00;5.40;99.90
12291;DHT22;6208;48.956;9.076;2022-12-07T15:52:44;4.70;99.90
12291;DHT22;6208;48.956;9.076;2022-12-07T15:55:29;4.50;99.90
12291;DHT22;6208;48.956;9.076;2022-12-07T15:58:13;5.70;99.90
12291;DHT22;6208;48.956;9.076;2022-12-07T16:00:57;4.30;99.90
12291;DHT22;6208;48.956;9.076;2022-12-07T16:03:42;7.00;99.90
12291;DHT22;6208;48.956;9.076;2022-12-07T16:06:27;4.80;99.90
12291;DHT22;6208;48.956;9.076;2022-12-07T16:09:11;4.20;99.90
12291;DHT22;6208;48.956;9.076;2022-12-07T16:11:56;4.00;99.90
12291;DHT22;6208;48.956;9.076;2022-12-07T16:14:41;4.00;99.90
12291;DHT22;6208;48.956;9.076;2022-12-07T16:17:25;4.00;99.90
12291;DHT22;6208;48.956;9.076;2022-12-07T16:20:10;3.90;99.90
12291;DHT22;6208;48.956;9.076;2022-12-07T16:22:54;4.00;99.90
12291;DHT22;6208;48.956;9.076;2022-12-07T16:25:38;3.90;99.90
12291;DHT22;6208;48.956;9.076;2022-12-07T16:28:22;5.40;99.90
12291;DHT22;6208;48.956;9.076;2022-12-07T16:31:12;4.10;99.90
12291;DHT22;6208;48.956;9.076;2022-12-07T16:33:57;4.30;99.90
12291;DHT22;6208;48.956;9.076;2022-12-07T16:36:42;4.90;99.90
12291;DHT22;6208;48.956;9.076;2022-12-07T16:39:26;4.60;99.90
12291;DHT22;6208;48.956;9.076;2022-12-07T16:42:10;4.80;99.90
12291;DHT22;6208;48.956;9.076;2022-12-07T16:44:54;5.20;99.90
12291;DHT22;6208;48.956;9.076;2022-12-07T16:47:38;4.40;99.90
12291;DHT22;6208;48.956;9.076;2022-12-07T16:50:22;4.60;99.90
12291;DHT22;6208;48.956;9.076;2022-12-07T16:53:07;4.20;99.90
12291;DHT22;6208;48.956;9.076;2022-12-07T16:55:52;4.20;99.90
12291;DHT22;6208;48.956;9.076;2022-12-07T16:58:36;4.40;99.90
12291;DHT22;6208;48.956;9.076;2022-12-07T17:01:21;4.00;99.90
12291;DHT22;6208;48.956;9.076;2022-12-07T17:04:06;3.90;99.90
12291;DHT22;6208;48.956;9.076;2022-12-07T17:06:51;3.80;99.90
12291;DHT22;6208;48.956;9.076;2022-12-07T17:09:36;4.20;99.90
12291;DHT22;6208;48.956;9.076;2022-12-07T17:12:20;3.60;99.90
12291;DHT22;6208;48.956;9.076;2022-12-07T17:15:05;3.70;99.90
12291;DHT22;6208;48.956;9.076;2022-12-07T17:18:01;3.60;99.90
12291;DHT22;6208;48.956;9.076;2022-12-07T17:20:45;3.60;99.90
12291;DHT22;6208;48.956;9.076;2022-12-07T17:23:30;4.30;99.90
12291;DHT22;6208;48.956;9.076;2022-12-07T17:26:23;6.10;99.90
12291;DHT22;6208;48.956;9.076;2022-12-07T17:29:08;3.70;99.90
12291;DHT22;6208;48.956;9.076;2022-12-07T17:31:54;5.10;99.90
12291;DHT22;6208;48.956;9.076;2022-12-07T17:34:38;3.80;99.90
12291;DHT22;6208;48.956;9.076;2022-12-07T17:37:22;6.20;99.90
12291;DHT22;6208;48.956;9.076;2022-12-07T17:40:06;3.70;99.90
12291;DHT22;6208;48.956;9.076;2022-12-07T17:42:51;3.80;99.90
12291;DHT22;6208;48.956;9.076;2022-12-07T17:45:36;3.70;99.90
12291;DHT22;6208;48.956;9.076;2022-12-07T17:48:21;3.70;99.90
12291;DHT22;6208;48.956;9.076;2022-12-07T17:51:05;4.70;99.90
12291;DHT22;6208;48.956;9.076;2022-12-07T17:54:08;3.70;99.90
12291;DHT22;6208;48.956;9.076;2022-12-07T17:56:53;5.80;99.90
12291;DHT22;6208;48.956;9.076;2022-12-07T17:59:37;3.60;99.90
12291;DHT22;6208;48.956;9.076;2022-12-07T18:02:21;3.70;99.90
12291;DHT22;6208;48.956;9.076;2022-12-07T18:05:06;4.20;99.90
12291;DHT22;6208;48.956;9.076;2022-12-07T18:07:51;4.00;99.90
12291;DHT22;6208;48.956;9.076;2022-12-07T18:10:35;4.10;99.90
12291;DHT22;6208;48.956;9.076;2022-12-07T18:13:19;4.20;99.90
12291;DHT22;6208;48.956;9.076;2022-12-07T18:16:22;4.10;99.90
12291;DHT22;6208;48.956;9.076;2022-12-07T18:19:07;4.40;99.90
12291;DHT22;6208;48.956;9.076;2022-12-07T18:21:52;4.30;99.90
12291;DHT22;6208;48.956;9.076;2022-12-07T18:24:36;4.10;99.90
12291;DHT22;6208;48.956;9.076;2022-12-07T18:27:21;4.20;99.90
12291;DHT22;6208;48.956;9.076;2022-12-07T18:30:05;4.10;99.90
12291;DHT22;6208;48.956;9.076;2022-12-07T18:32:50;3.90;99.90
12291;DHT22;6208;48.956;9.076;2022-12-07T18:35:34;5.70;99.90
12291;DHT22;6208;48.956;9.076;2022-12-07T18:38:21;3.90;99.90
12291;DHT22;6208;48.956;9.076;2022-12-07T18:41:13;4.00;99.90
12291;DHT22;6208;48.956;9.076;2022-12-07T18:43:57;4.00;99.90
12291;DHT22;6208;48.956;9.076;2022-12-07T18:46:42;3.90;99.90
12291;DHT22;6208;48.956;9.076;2022-12-07T18:49:26;3.70;99.90
12291;DHT22;6208;48.956;9.076;2022-12-07T18:52:11;3.70;99.90
12291;DHT22;6208;48.956;9.076;2022-12-07T18:54:55;3.80;99.90
12291;DHT22;6208;48.956;9.076;2022-12-07T18:57:39;3.80;99.90
12291;DHT22;6208;48.956;9.076;2022-12-07T19:00:28;4.80;99.90
12291;DHT22;6208;48.956;9.076;2022-12-07T19:03:12;3.70;99.90
12291;DHT22;6208;48.956;9.076;2022-12-07T19:05:56;3.70;99.90
12291;DHT22;6208;48.956;9.076;2022-12-07T19:11:28;3.60;99.90
12291;DHT22;6208;48.956;9.076;2022-12-07T19:14:35;3.60;99.90
12291;DHT22;6208;48.956;9.076;2022-12-07T19:17:20;5.30;99.90
12291;DHT22;6208;48.956;9.076;2022-12-07T19:20:06;3.60;99.90
12291;DHT22;6208;48.956;9.076;2022-12-07T19:22:51;3.60;99.90
12291;DHT22;6208;48.956;9.076;2022-12-07T19:25:35;4.00;99.90
12291;DHT22;6208;48.956;9.076;2022-12-07T19:28:19;4.90;99.90
12291;DHT22;6208;48.956;9.076;2022-12-07T19:31:07;3.90;99.90
12291;DHT22;6208;48.956;9.076;2022-12-07T19:33:52;3.80;99.90
12291;DHT22;6208;48.956;9.076;2022-12-07T19:36:37;4.10;99.90
12291;DHT22;6208;48.956;9.076;2022-12-07T19:39:21;3.80;99.90
12291;DHT22;6208;48.956;9.076;2022-12-07T19:42:06;3.90;99.90
12291;DHT22;6208;48.956;9.076;2022-12-07T19:44:50;4.30;99.90
12291;DHT22;6208;48.956;9.076;2022-12-07T19:47:34;4.40;99.70
12291;DHT22;6208;48.956;9.076;2022-12-07T19:50:18;4.50;99.60
12291;DHT22;6208;48.956;9.076;2022-12-07T19:53:02;4.60;99.20
12291;DHT22;6208;48.956;9.076;2022-12-07T19:55:46;4.80;99.10
12291;DHT22;6208;48.956;9.076;2022-12-07T19:58:31;5.00;98.60
12291;DHT22;6208;48.956;9.076;2022-12-07T20:01:16;5.20;98.50
12291;DHT22;6208;48.956;9.076;2022-12-07T20:04:00;5.20;98.30
12291;DHT22;6208;48.956;9.076;2022-12-07T20:06:52;5.20;98.50
12291;DHT22;6208;48.956;9.076;2022-12-07T20:09:37;5.20;98.50
12291;DHT22;6208;48.956;9.076;2022-12-07T20:12:21;5.10;98.20
12291;DHT22;6208;48.956;9.076;2022-12-07T20:15:24;5.40;98.40
12291;DHT22;6208;48.956;9.076;2022-12-07T20:18:08;7.30;99.20